createdAt,value
2022-09-02T00:02:24.884Z,62.61
2022-09-02T00:05:12.293Z,62.72
2022-09-02T00:07:52.862Z,62.75
2022-09-02T00:10:53.952Z,62.76
2022-09-02T00:13:44.677Z,62.74
2022-09-02T00:16:17.766Z,62.84
2022-09-02T00:18:57.241Z,62.75
2022-09-02T00:21:39.138Z,62.86
2022-09-02T00:24:25.807Z,62.95
2022-09-02T00:27:08.047Z,62.99
2022-09-02T00:29:45.662Z,63.10
2022-09-02T00:32:23.247Z,62.96
2022-09-02T00:34:54.747Z,63.00
2022-09-02T00:37:54.577Z,63.23
2022-09-02T00:40:33.463Z,63.23
2022-09-02T00:43:49.452Z,63.13
2022-09-02T00:46:30.448Z,63.26
2022-09-02T00:49:35.023Z,63.16
2022-09-02T00:53:19.462Z,63.27
2022-09-02T00:56:03.121Z,63.45
2022-09-02T00:58:38.678Z,63.57
2022-09-02T01:01:30.071Z,63.46
2022-09-02T01:04:08.261Z,63.57
2022-09-02T01:07:24.496Z,63.63
2022-09-02T01:10:16.328Z,63.59
2022-09-02T01:13:09.490Z,63.70
2022-09-02T01:16:27.570Z,63.81
2022-09-02T01:19:43.726Z,63.71
2022-09-02T01:22:34.128Z,63.78
2022-09-02T01:25:41.485Z,63.82
2022-09-02T01:28:40.983Z,63.80
2022-09-02T01:31:18.145Z,63.96
2022-09-02T01:34:06.897Z,64.02
2022-09-02T01:36:42.724Z,64.22
2022-09-02T01:39:32.985Z,64.24
2022-09-02T01:42:30.468Z,64.28
2022-09-02T01:45:05.402Z,64.10
2022-09-02T01:47:46.477Z,64.15
2022-09-02T01:50:27.050Z,64.14
2022-09-02T01:53:39.476Z,64.27
2022-09-02T01:56:15.134Z,64.32
2022-09-02T01:59:08.373Z,64.42
2022-09-02T02:01:48.308Z,64.57
2022-09-02T02:04:20.780Z,64.73
2022-09-02T02:07:19.649Z,64.83
2022-09-02T02:10:10.580Z,64.87
2022-09-02T02:13:02.927Z,64.59
2022-09-02T02:16:08.539Z,64.52
2022-09-02T02:18:43.487Z,64.44
2022-09-02T02:21:15.370Z,64.48
2022-09-02T02:24:01.886Z,64.61
2022-09-02T02:26:33.749Z,64.65
2022-09-02T02:29:09.758Z,64.70
2022-09-02T02:31:39.896Z,64.81
2022-09-02T02:34:43.079Z,64.86
2022-09-02T02:37:33.177Z,65.01
2022-09-02T02:40:14.353Z,64.76
2022-09-02T02:42:55.041Z,64.87
2022-09-02T02:45:37.939Z,64.94
2022-09-02T02:48:15.044Z,65.10
2022-09-02T02:51:03.153Z,65.11
2022-09-02T02:53:40.151Z,65.09
2022-09-02T02:57:01.347Z,65.17
2022-09-02T03:00:02.840Z,65.10
2022-09-02T03:02:42.406Z,65.11
2022-09-02T03:05:53.995Z,65.01
2022-09-02T03:09:09.347Z,64.86
2022-09-02T03:11:54.375Z,64.82
2022-09-02T03:14:51.599Z,64.80
2022-09-02T03:17:42.675Z,64.86
2022-09-02T03:20:17.397Z,64.82
2022-09-02T03:22:59.378Z,64.83
2022-09-02T03:25:56.327Z,64.79
2022-09-02T03:29:13.554Z,64.78
2022-09-02T03:31:46.349Z,64.84
2022-09-02T03:34:21.807Z,64.83
2022-09-02T03:37:13.900Z,64.73
2022-09-02T03:39:43.241Z,64.85
2022-09-02T03:42:21.348Z,64.85
2022-09-02T03:45:01.996Z,64.90
2022-09-02T03:47:51.509Z,64.96
2022-09-02T03:50:25.832Z,64.94
2022-09-02T03:53:01.533Z,65.02
2022-09-02T03:55:56.042Z,64.95
2022-09-02T03:58:37.842Z,64.92
2022-09-02T04:01:37.837Z,64.82
2022-09-02T04:04:47.698Z,64.88
2022-09-02T04:07:21.314Z,64.95
2022-09-02T04:10:02.619Z,65.04
2022-09-02T04:12:36.836Z,64.96
2022-09-02T04:16:10.542Z,64.99
2022-09-02T04:18:43.459Z,65.03
2022-09-02T04:21:41.650Z,65.02
2022-09-02T04:24:16.749Z,64.96
2022-09-02T04:27:05.579Z,64.98
2022-09-02T04:29:52.357Z,64.84
2022-09-02T04:32:41.000Z,64.97
2022-09-02T04:35:26.342Z,65.01
2022-09-02T04:38:32.851Z,64.96
2022-09-02T04:41:38.396Z,65.01
2022-09-02T04:44:38.170Z,64.87
2022-09-02T04:47:19.316Z,65.07
2022-09-02T04:49:55.697Z,65.22
2022-09-02T04:52:54.590Z,65.05
2022-09-02T04:55:58.050Z,65.09
2022-09-02T04:58:37.533Z,65.28
2022-09-02T05:01:38.581Z,65.32
2022-09-02T05:04:52.829Z,65.24
2022-09-02T05:07:33.953Z,65.27
2022-09-02T05:10:35.461Z,65.25
2022-09-02T05:13:29.520Z,65.32
2022-09-02T05:16:02.885Z,65.31
2022-09-02T05:19:01.284Z,65.48
2022-09-02T05:21:59.144Z,65.58
2022-09-02T05:25:22.866Z,65.40
2022-09-02T05:27:59.737Z,65.64
2022-09-02T05:30:33.345Z,65.52
2022-09-02T05:33:15.376Z,65.22
2022-09-02T05:35:56.038Z,65.48
2022-09-02T05:38:33.905Z,65.48
2022-09-02T05:41:23.619Z,65.45
2022-09-02T05:44:01.468Z,65.39
2022-09-02T05:46:51.885Z,65.31
2022-09-02T05:49:43.918Z,65.44
2022-09-02T05:52:26.736Z,65.37
2022-09-02T05:55:05.577Z,65.43
2022-09-02T05:57:40.957Z,65.37
2022-09-02T06:00:17.872Z,65.32
2022-09-02T06:02:52.636Z,65.37
2022-09-02T06:06:03.134Z,65.31
2022-09-02T06:08:46.372Z,65.42
2022-09-02T06:11:19.522Z,65.53
2022-09-02T06:13:55.742Z,65.56
2022-09-02T06:16:35.022Z,65.64
2022-09-02T06:19:16.439Z,65.61
2022-09-02T06:22:03.796Z,65.66
2022-09-02T06:24:38.912Z,65.79
2022-09-02T06:27:23.233Z,65.78
2022-09-02T06:30:02.110Z,66.01
2022-09-02T06:32:52.816Z,66.04
2022-09-02T06:35:28.046Z,65.79
2022-09-02T06:38:11.276Z,65.79
2022-09-02T06:41:03.479Z,65.79
2022-09-02T06:44:03.135Z,65.73
2022-09-02T06:46:55.464Z,65.60
2022-09-02T06:49:35.476Z,65.63
2022-09-02T06:52:17.033Z,65.46
2022-09-02T06:55:11.076Z,65.44
2022-09-02T06:57:59.194Z,65.42
2022-09-02T07:00:37.016Z,65.71
2022-09-02T07:03:36.739Z,65.62
2022-09-02T07:06:17.819Z,65.59
2022-09-02T07:09:08.302Z,65.56
2022-09-02T07:11:53.930Z,65.36
2022-09-02T07:14:39.341Z,65.28
2022-09-02T07:17:23.606Z,64.92
2022-09-02T07:20:18.095Z,64.82
2022-09-02T07:23:11.692Z,64.77
2022-09-02T07:25:59.178Z,64.79
2022-09-02T07:28:44.038Z,64.54
2022-09-02T07:31:22.251Z,64.55
2022-09-02T07:34:19.235Z,64.45
2022-09-02T07:37:03.270Z,63.98
2022-09-02T07:39:50.231Z,63.96
2022-09-02T07:42:43.781Z,63.67
2022-09-02T07:46:24.817Z,63.63
2022-09-02T07:49:09.936Z,63.14
2022-09-02T07:51:58.172Z,63.12
2022-09-02T07:54:54.759Z,62.90
2022-09-02T07:57:56.809Z,62.63
2022-09-02T08:01:14.242Z,62.46
2022-09-02T08:04:22.049Z,62.25
2022-09-02T08:07:14.247Z,61.78
2022-09-02T08:10:01.458Z,61.76
2022-09-02T08:12:36.603Z,61.91
2022-09-02T08:15:50.651Z,61.60
2022-09-02T08:18:42.777Z,61.46
2022-09-02T08:21:29.318Z,60.88
2022-09-02T08:24:10.630Z,60.63
2022-09-02T08:26:55.832Z,60.66
2022-09-02T08:30:22.192Z,60.38
2022-09-02T08:33:19.533Z,60.23
2022-09-02T08:36:15.455Z,59.80
2022-09-02T08:39:02.062Z,59.36
2022-09-02T08:42:05.013Z,59.10
2022-09-02T08:44:54.585Z,58.97
2022-09-02T08:47:32.222Z,58.83
2022-09-02T08:50:22.209Z,58.58
2022-09-02T08:53:40.343Z,58.31
2022-09-02T08:57:09.658Z,57.88
2022-09-02T08:59:53.172Z,58.11
2022-09-02T09:02:33.931Z,57.78
2022-09-02T09:05:13.096Z,57.51
2022-09-02T09:08:09.636Z,56.90
2022-09-02T09:11:02.613Z,56.84
2022-09-02T09:13:44.481Z,56.90
2022-09-02T09:16:46.345Z,56.65
2022-09-02T09:20:00.702Z,56.63
2022-09-02T09:22:42.467Z,56.51
2022-09-02T09:25:30.281Z,56.41
2022-09-02T09:28:19.566Z,56.59
2022-09-02T09:31:20.600Z,56.64
2022-09-02T09:35:00.429Z,56.95
2022-09-02T09:37:59.749Z,57.15
2022-09-02T09:41:15.734Z,57.12
2022-09-02T09:43:54.003Z,56.95
2022-09-02T09:47:31.840Z,57.01
2022-09-02T09:50:49.340Z,56.71
2022-09-02T09:54:16.302Z,56.35
2022-09-02T09:56:50.809Z,56.12
2022-09-02T10:00:05.478Z,55.86
2022-09-02T10:03:06.828Z,55.64
2022-09-02T10:05:44.323Z,55.17
2022-09-02T10:08:50.077Z,54.95
2022-09-02T10:12:07.162Z,54.99
2022-09-02T10:14:59.642Z,54.31
2022-09-02T10:18:21.211Z,54.20
2022-09-02T10:21:45.195Z,53.93
2022-09-02T10:25:10.434Z,53.33
2022-09-02T10:28:34.026Z,53.12
2022-09-02T10:31:51.099Z,52.88
2022-09-02T10:34:55.885Z,52.62
2022-09-02T10:38:10.548Z,52.40
2022-09-02T10:41:32.001Z,52.02
2022-09-02T10:44:38.493Z,51.52
2022-09-02T10:50:41.214Z,50.95
2022-09-02T10:53:32.795Z,51.00
2022-09-02T10:56:51.937Z,50.82
2022-09-02T10:59:37.962Z,50.55
2022-09-02T11:02:18.343Z,50.45
2022-09-02T11:05:12.713Z,50.17
2022-09-02T11:08:20.646Z,49.70
2022-09-02T11:11:22.104Z,49.47
2022-09-02T11:14:03.547Z,49.01
2022-09-02T11:16:46.163Z,48.64
2022-09-02T11:19:49.705Z,48.48
2022-09-02T11:22:55.626Z,48.15
2022-09-02T11:25:53.746Z,47.57
2022-09-02T11:28:43.594Z,47.16
2022-09-02T11:32:01.011Z,46.64
2022-09-02T11:35:06.980Z,46.16
2022-09-02T11:38:27.134Z,45.66
2022-09-02T11:41:36.635Z,45.24
2022-09-02T11:44:52.490Z,44.87
2022-09-02T11:48:17.271Z,44.13
2022-09-02T11:51:28.171Z,43.66
2022-09-02T11:54:20.791Z,43.09
2022-09-02T11:57:41.599Z,42.45
2022-09-02T12:00:55.879Z,41.99
2022-09-02T12:03:52.042Z,41.03
2022-09-02T12:06:28.373Z,41.16
2022-09-02T12:09:00.758Z,41.42
2022-09-02T12:11:41.922Z,41.09
2022-09-02T12:14:31.755Z,40.84
2022-09-02T12:17:40.824Z,40.44
2022-09-02T12:20:39.809Z,40.10
2022-09-02T12:23:10.678Z,39.70
2022-09-02T12:25:57.356Z,39.62
2022-09-02T12:28:31.389Z,39.12
2022-09-02T12:31:08.898Z,38.24
2022-09-02T12:33:40.213Z,37.87
2022-09-02T12:36:40.562Z,37.93
2022-09-02T12:39:25.808Z,37.83
2022-09-02T12:42:01.731Z,38.10
2022-09-02T12:44:42.459Z,38.08
2022-09-02T12:47:31.627Z,38.24
2022-09-02T12:50:11.962Z,38.73
2022-09-02T12:52:52.618Z,38.82
2022-09-02T12:55:27.330Z,38.55
2022-09-02T12:58:30.365Z,38.47
2022-09-02T13:01:54.387Z,37.95
2022-09-02T13:05:10.213Z,37.78
2022-09-02T13:08:12.285Z,37.96
2022-09-02T13:10:57.932Z,37.96
2022-09-02T13:13:55.742Z,38.15
2022-09-02T13:16:48.383Z,38.35
2022-09-02T13:19:39.718Z,38.79
2022-09-02T13:22:46.301Z,38.94
2022-09-02T13:25:48.661Z,38.89
2022-09-02T13:28:59.894Z,38.82
2022-09-02T13:31:31.744Z,39.10
2022-09-02T13:34:39.801Z,39.08
2022-09-02T13:38:03.447Z,39.34
2022-09-02T13:40:39.590Z,39.49
2022-09-02T13:43:28.305Z,39.55
2022-09-02T13:46:12.914Z,39.75
2022-09-02T13:48:50.647Z,40.05
2022-09-02T13:51:31.138Z,39.99
2022-09-02T13:54:42.905Z,40.22
2022-09-02T13:57:47.771Z,40.54
2022-09-02T14:00:33.502Z,41.03
2022-09-02T14:03:25.216Z,40.93
2022-09-02T14:06:23.565Z,41.22
2022-09-02T14:09:14.336Z,41.30
2022-09-02T14:12:12.102Z,41.54
2022-09-02T14:14:53.049Z,41.52
2022-09-02T14:17:45.524Z,41.52
2022-09-02T14:20:33.903Z,41.46
2022-09-02T14:23:16.773Z,41.44
2022-09-02T14:26:02.483Z,41.72
2022-09-02T14:28:52.485Z,41.67
2022-09-02T14:31:35.406Z,41.82
2022-09-02T14:34:36.806Z,41.87
2022-09-02T14:38:08.491Z,42.10
2022-09-02T14:41:12.095Z,42.31
2022-09-02T14:44:15.873Z,42.11
2022-09-02T14:47:01.383Z,42.06
2022-09-02T14:49:39.614Z,42.19
2022-09-02T14:52:41.704Z,41.99
2022-09-02T14:55:59.625Z,41.94
2022-09-02T14:58:52.127Z,41.90
2022-09-02T15:02:09.248Z,41.92
2022-09-02T15:05:14.904Z,41.83
2022-09-02T15:08:16.402Z,41.93
2022-09-02T15:11:04.106Z,42.03
2022-09-02T15:13:40.538Z,42.17
2022-09-02T15:16:32.023Z,42.16
2022-09-02T15:19:18.828Z,42.35
2022-09-02T15:22:22.787Z,42.03
2022-09-02T15:25:04.469Z,42.31
2022-09-02T15:27:39.317Z,42.47
2022-09-02T15:30:35.791Z,42.32
2022-09-02T15:33:18.992Z,42.47
2022-09-02T15:36:25.745Z,42.27
2022-09-02T15:39:40.556Z,42.15
2022-09-02T15:42:29.989Z,42.32
2022-09-02T15:45:10.760Z,42.06
2022-09-02T15:47:54.017Z,42.18
2022-09-02T15:50:46.612Z,42.18
2022-09-02T15:53:28.968Z,41.78
2022-09-02T15:56:00.560Z,42.41
2022-09-02T15:59:20.068Z,42.24
2022-09-02T16:02:27.020Z,42.39
2022-09-02T16:05:21.984Z,42.37
2022-09-02T16:08:20.878Z,42.50
2022-09-02T16:11:10.995Z,42.64
2022-09-02T16:14:06.765Z,42.51
2022-09-02T16:17:25.786Z,42.69
2022-09-02T16:20:24.135Z,42.84
2022-09-02T16:23:07.362Z,42.83
2022-09-02T16:26:09.305Z,43.05
2022-09-02T16:29:28.336Z,42.92
2022-09-02T16:32:55.342Z,43.17
2022-09-02T16:35:55.750Z,42.94
2022-09-02T16:38:56.967Z,42.95
2022-09-02T16:41:44.229Z,43.03
2022-09-02T16:44:34.539Z,42.68
2022-09-02T16:47:25.239Z,43.12
2022-09-02T16:50:28.283Z,42.90
2022-09-02T16:53:09.333Z,42.99
2022-09-02T16:56:27.896Z,43.01
2022-09-02T16:59:11.941Z,43.19
2022-09-02T17:02:24.081Z,43.14
2022-09-02T17:05:08.773Z,43.27
2022-09-02T17:08:02.866Z,43.32
2022-09-02T17:10:36.374Z,43.38
2022-09-02T17:13:31.406Z,43.51
2022-09-02T17:16:12.909Z,43.49
2022-09-02T17:18:59.794Z,43.67
2022-09-02T17:22:12.645Z,43.61
2022-09-02T17:24:54.091Z,43.75
2022-09-02T17:27:28.583Z,43.99
2022-09-02T17:30:25.498Z,44.04
2022-09-02T17:33:29.238Z,43.90
2022-09-02T17:36:29.566Z,44.10
2022-09-02T17:39:16.918Z,44.27
2022-09-02T17:42:16.940Z,44.43
2022-09-02T17:45:01.363Z,44.36
2022-09-02T17:47:59.272Z,44.68
2022-09-02T17:50:56.603Z,44.86
2022-09-02T17:53:36.235Z,45.20
2022-09-02T17:56:51.290Z,45.31
2022-09-02T18:00:13.944Z,45.41
2022-09-02T18:03:42.365Z,45.70
2022-09-02T18:07:08.907Z,45.94
2022-09-02T18:10:57.839Z,46.05
2022-09-02T18:14:14.464Z,46.45
2022-09-02T18:17:10.825Z,46.50
2022-09-02T18:20:55.091Z,46.82
2022-09-02T18:23:50.876Z,47.12
2022-09-02T18:27:35.545Z,47.26
2022-09-02T18:31:09.598Z,47.41
2022-09-02T18:34:37.773Z,47.61
2022-09-02T18:37:41.622Z,47.73
2022-09-02T18:41:24.291Z,47.79
2022-09-02T18:44:55.425Z,47.93
2022-09-02T18:48:54.291Z,48.19
2022-09-02T18:52:14.452Z,48.33
2022-09-02T18:55:19.785Z,48.32
2022-09-02T18:59:04.631Z,48.53
2022-09-02T19:02:02.298Z,48.61
2022-09-02T19:04:58.926Z,48.90
2022-09-02T19:07:59.908Z,49.10
2022-09-02T19:26:06.967Z,50.13
2022-09-02T19:28:52.138Z,50.36
2022-09-02T19:31:29.706Z,50.44
2022-09-02T19:34:14.448Z,50.69
2022-09-02T19:36:49.242Z,50.83
2022-09-02T19:40:03.693Z,50.88
2022-09-02T19:42:36.007Z,51.08
2022-09-02T19:45:21.890Z,51.21
2022-09-02T19:48:06.961Z,51.37
2022-09-02T19:51:09.081Z,51.52
2022-09-02T19:53:56.812Z,51.72
2022-09-02T19:56:45.676Z,51.81
2022-09-02T20:00:06.545Z,52.01
2022-09-02T20:02:44.687Z,52.11
2022-09-02T20:05:26.482Z,52.31
2022-09-02T20:08:01.618Z,52.44
2022-09-02T20:10:37.537Z,52.61
2022-09-02T20:13:25.306Z,52.63
2022-09-02T20:15:57.989Z,52.74
2022-09-02T20:18:30.243Z,52.98
2022-09-02T20:21:12.964Z,53.06
2022-09-02T20:23:47.713Z,53.10
2022-09-02T20:26:31.333Z,53.25
2022-09-02T20:29:40.574Z,53.42
2022-09-02T20:32:42.025Z,53.60
2022-09-02T20:36:06.723Z,53.70
2022-09-02T20:39:07.325Z,53.80
2022-09-02T20:42:30.957Z,54.06
2022-09-02T20:45:30.236Z,54.22
2022-09-02T20:48:52.371Z,54.34
2022-09-02T20:52:19.439Z,54.49
2022-09-02T20:56:01.366Z,54.62
2022-09-02T20:58:36.834Z,54.72
2022-09-02T21:01:37.297Z,54.86
2022-09-02T21:04:22.274Z,54.96
2022-09-02T21:07:17.921Z,55.05
2022-09-02T21:10:16.852Z,55.17
2022-09-02T21:13:16.701Z,55.42
2022-09-02T21:16:20.184Z,55.42
2022-09-02T21:19:30.976Z,55.52
2022-09-02T21:22:26.943Z,55.71
2022-09-02T21:25:38.410Z,55.78
2022-09-02T21:28:18.237Z,55.92
2022-09-02T21:31:21.189Z,55.98
2022-09-02T21:34:05.682Z,55.95
2022-09-02T21:36:42.019Z,56.19
2022-09-02T21:39:51.443Z,56.28
2022-09-02T21:43:11.632Z,56.19
2022-09-02T21:45:51.795Z,56.37
2022-09-02T21:49:05.054Z,56.42
2022-09-02T21:52:41.725Z,56.55
2022-09-02T21:55:35.640Z,56.54
2022-09-02T21:59:06.656Z,56.77
2022-09-02T22:02:19.688Z,56.90
2022-09-02T22:05:21.624Z,56.89
2022-09-02T22:08:41.291Z,57.06
2022-09-02T22:11:54.781Z,57.14
2022-09-02T22:15:31.226Z,57.26
2022-09-02T22:19:01.890Z,57.35
2022-09-02T22:21:53.961Z,57.60
2022-09-02T22:25:00.939Z,57.62
2022-09-02T22:28:15.383Z,57.70
2022-09-02T22:31:13.834Z,57.85
2022-09-02T22:34:00.130Z,57.95
2022-09-02T22:37:14.018Z,57.96
2022-09-02T22:39:54.092Z,58.00
2022-09-02T22:43:10.964Z,57.91
2022-09-02T22:46:15.135Z,58.00
2022-09-02T22:49:37.732Z,58.01
2022-09-02T22:52:57.208Z,58.10
2022-09-02T22:56:05.320Z,58.11
2022-09-02T22:59:29.814Z,58.10
2022-09-02T23:02:32.105Z,58.14
2022-09-02T23:06:01.801Z,58.10
2022-09-02T23:09:11.624Z,58.10
2022-09-02T23:11:53.351Z,58.03
2022-09-02T23:15:04.650Z,58.11
2022-09-02T23:18:08.768Z,58.08
2022-09-02T23:21:33.014Z,58.01
2022-09-02T23:24:04.177Z,58.00
2022-09-02T23:27:35.597Z,57.96
2022-09-02T23:30:33.387Z,57.95
2022-09-02T23:33:09.167Z,58.02
2022-09-02T23:36:47.572Z,58.08
2022-09-02T23:39:53.088Z,57.94
2022-09-02T23:42:29.797Z,58.04
2022-09-02T23:45:30.093Z,57.99
2022-09-02T23:48:51.954Z,57.94
2022-09-02T23:51:58.015Z,58.07
2022-09-02T23:54:38.698Z,57.93
2022-09-02T23:57:58.571Z,58.10
